createdAt,value
2023-05-07T00:00:36.308Z,14.05
2023-05-07T00:03:02.984Z,13.98
2023-05-07T00:05:30.177Z,13.90
2023-05-07T00:07:58.439Z,13.91
2023-05-07T00:10:26.883Z,13.91
2023-05-07T00:12:53.604Z,13.90
2023-05-07T00:15:20.759Z,13.86
2023-05-07T00:17:47.411Z,13.81
2023-05-07T00:20:14.216Z,13.79
2023-05-07T00:22:41.051Z,13.75
2023-05-07T00:25:08.428Z,13.77
2023-05-07T00:27:35.020Z,13.81
2023-05-07T00:30:01.628Z,13.85
2023-05-07T00:32:28.248Z,13.88
2023-05-07T00:34:55.027Z,13.89
2023-05-07T00:37:21.773Z,13.82
2023-05-07T00:39:48.368Z,13.83
2023-05-07T00:42:16.076Z,13.84
2023-05-07T00:44:42.910Z,13.79
2023-05-07T00:47:09.664Z,13.68
2023-05-07T00:49:39.589Z,13.65
2023-05-07T00:52:08.524Z,13.59
2023-05-07T00:54:35.796Z,13.55
2023-05-07T00:57:04.622Z,13.50
2023-05-07T00:59:33.154Z,13.49
2023-05-07T01:02:00.508Z,13.47
2023-05-07T01:04:27.824Z,13.46
2023-05-07T01:06:59.899Z,13.42
2023-05-07T01:09:28.436Z,13.40
2023-05-07T01:11:58.503Z,13.36
2023-05-07T01:14:26.659Z,13.35
2023-05-07T01:16:54.331Z,13.32
2023-05-07T01:19:21.226Z,13.26
2023-05-07T01:21:49.608Z,13.25
2023-05-07T01:24:16.684Z,13.22
2023-05-07T01:26:45.411Z,13.14
2023-05-07T01:29:12.066Z,13.12
2023-05-07T01:31:39.992Z,13.10
2023-05-07T01:34:09.472Z,13.06
2023-05-07T01:36:39.767Z,13.06
2023-05-07T01:39:07.561Z,13.03
2023-05-07T01:41:34.237Z,13.01
2023-05-07T01:44:02.351Z,13.01
2023-05-07T01:46:29.836Z,13.00
2023-05-07T01:48:56.774Z,12.94
2023-05-07T01:51:23.785Z,12.84
2023-05-07T01:53:51.890Z,12.80
2023-05-07T01:56:19.139Z,12.76
2023-05-07T01:58:49.193Z,12.72
2023-05-07T02:01:15.843Z,12.67
2023-05-07T02:03:42.680Z,12.57
2023-05-07T02:06:09.662Z,12.54
2023-05-07T02:08:36.543Z,12.45
2023-05-07T02:11:03.196Z,12.45
2023-05-07T02:13:34.474Z,12.47
2023-05-07T02:16:01.125Z,12.45
2023-05-07T02:18:27.968Z,12.41
2023-05-07T02:20:54.539Z,12.40
2023-05-07T02:23:21.240Z,12.35
2023-05-07T02:25:47.797Z,12.26
2023-05-07T02:28:14.429Z,12.17
2023-05-07T02:30:41.450Z,12.14
2023-05-07T02:33:09.568Z,12.14
2023-05-07T02:35:36.356Z,12.11
2023-05-07T02:38:03.412Z,12.07
2023-05-07T02:40:30.061Z,12.06
2023-05-07T02:42:56.987Z,12.03
2023-05-07T02:45:23.551Z,11.94
2023-05-07T02:47:50.266Z,11.89
2023-05-07T02:50:17.134Z,11.86
2023-05-07T02:52:43.780Z,11.78
2023-05-07T02:55:10.435Z,11.71
2023-05-07T02:57:37.022Z,11.71
2023-05-07T03:00:19.962Z,11.75
2023-05-07T03:02:46.817Z,11.76
2023-05-07T03:05:13.721Z,11.79
2023-05-07T03:07:40.381Z,11.77
2023-05-07T03:10:07.388Z,11.78
2023-05-07T03:12:33.960Z,11.81
2023-05-07T03:15:00.580Z,11.82
2023-05-07T03:17:27.175Z,11.81
2023-05-07T03:19:53.864Z,11.80
2023-05-07T03:22:20.503Z,11.81
2023-05-07T03:24:47.112Z,11.83
2023-05-07T03:27:13.659Z,11.84
2023-05-07T03:29:40.542Z,11.82
2023-05-07T03:32:07.534Z,11.81
2023-05-07T03:34:34.145Z,11.79
2023-05-07T03:37:01.402Z,11.75
2023-05-07T03:39:28.100Z,11.75
2023-05-07T03:41:54.687Z,11.76
2023-05-07T03:44:21.339Z,11.73
2023-05-07T03:46:48.081Z,11.70
2023-05-07T03:49:14.764Z,11.70
2023-05-07T03:51:41.376Z,11.70
2023-05-07T03:54:08.378Z,11.69
2023-05-07T03:56:34.929Z,11.67
2023-05-07T03:59:02.611Z,11.66
2023-05-07T04:01:29.247Z,11.64
2023-05-07T04:03:56.835Z,11.62
2023-05-07T04:06:23.688Z,11.61
2023-05-07T04:08:50.283Z,11.58
2023-05-07T04:11:16.883Z,11.60
2023-05-07T04:13:43.494Z,11.60
2023-05-07T04:16:10.071Z,11.60
2023-05-07T04:18:36.738Z,11.63
2023-05-07T04:21:03.342Z,11.71
2023-05-07T04:23:30.055Z,11.79
2023-05-07T04:25:57.088Z,11.86
2023-05-07T04:28:24.138Z,11.89
2023-05-07T04:30:50.765Z,11.96
2023-05-07T04:33:18.286Z,12.05
2023-05-07T04:35:44.902Z,12.16
2023-05-07T04:38:12.057Z,12.22
2023-05-07T04:40:38.702Z,12.25
2023-05-07T04:43:05.578Z,12.30
2023-05-07T04:45:32.307Z,12.39
2023-05-07T04:47:58.929Z,12.38
2023-05-07T04:50:26.119Z,12.41
2023-05-07T04:52:52.672Z,12.49
2023-05-07T04:55:19.374Z,12.60
2023-05-07T04:57:46.360Z,12.69
2023-05-07T05:00:15.505Z,12.78
2023-05-07T05:02:42.312Z,12.87
2023-05-07T05:05:09.593Z,12.94
2023-05-07T05:07:36.194Z,13.02
2023-05-07T05:10:04.254Z,13.09
2023-05-07T05:12:31.563Z,13.17
2023-05-07T05:14:58.278Z,13.27
2023-05-07T05:17:25.078Z,13.39
2023-05-07T05:19:51.938Z,13.49
2023-05-07T05:22:18.565Z,13.61
2023-05-07T05:24:45.129Z,13.72
2023-05-07T05:27:11.735Z,13.83
2023-05-07T05:29:38.324Z,13.97
2023-05-07T05:32:05.201Z,14.07
2023-05-07T05:34:31.808Z,14.17
2023-05-07T05:37:00.196Z,14.29
2023-05-07T05:39:26.885Z,14.43
2023-05-07T05:41:53.472Z,14.52
2023-05-07T05:44:20.008Z,14.62
2023-05-07T05:46:46.696Z,14.72
2023-05-07T05:49:13.297Z,14.79
2023-05-07T05:51:39.904Z,14.87
2023-05-07T05:54:06.494Z,14.94
2023-05-07T05:56:33.233Z,15.08
2023-05-07T05:59:00.038Z,15.24
2023-05-07T06:01:26.828Z,15.38
2023-05-07T06:03:53.510Z,15.48
2023-05-07T06:06:20.208Z,15.54
2023-05-07T06:08:46.923Z,15.66
2023-05-07T06:11:13.509Z,15.79
2023-05-07T06:13:40.202Z,15.89
2023-05-07T06:16:07.773Z,16.02
2023-05-07T06:18:34.493Z,16.15
2023-05-07T06:21:01.056Z,16.28
2023-05-07T06:23:27.634Z,16.41
2023-05-07T06:25:54.222Z,16.55
2023-05-07T06:28:21.104Z,16.70
2023-05-07T06:30:48.285Z,16.89
2023-05-07T06:33:14.872Z,17.03
2023-05-07T06:35:41.469Z,17.18
2023-05-07T06:38:08.048Z,17.33
2023-05-07T06:40:34.627Z,17.48
2023-05-07T06:43:01.276Z,17.58
2023-05-07T06:45:27.929Z,17.73
2023-05-07T06:47:54.610Z,17.85
2023-05-07T06:50:21.311Z,18.01
2023-05-07T06:52:47.866Z,18.07
2023-05-07T06:55:14.637Z,18.17
2023-05-07T06:57:41.259Z,18.27
2023-05-07T07:00:10.317Z,18.41
2023-05-07T07:02:37.838Z,18.54
2023-05-07T07:05:05.092Z,18.60
2023-05-07T07:07:31.876Z,18.65
2023-05-07T07:09:58.478Z,18.71
2023-05-07T07:12:26.994Z,18.75
2023-05-07T07:14:55.078Z,18.78
2023-05-07T07:17:22.088Z,18.79
2023-05-07T07:19:48.701Z,18.84
2023-05-07T07:22:15.334Z,18.88
2023-05-07T07:24:42.022Z,18.95
2023-05-07T07:27:08.727Z,18.99
2023-05-07T07:29:35.431Z,19.09
2023-05-07T07:32:02.018Z,19.15
2023-05-07T07:34:28.673Z,19.27
2023-05-07T07:36:55.233Z,19.38
2023-05-07T07:39:21.834Z,19.47
2023-05-07T07:41:48.383Z,19.52
2023-05-07T07:44:16.324Z,19.62
2023-05-07T07:46:43.396Z,19.75
2023-05-07T07:49:10.078Z,19.82
2023-05-07T07:51:36.692Z,20.00
2023-05-07T07:54:03.893Z,20.21
2023-05-07T07:56:30.586Z,20.29
2023-05-07T07:58:57.133Z,20.30
2023-05-07T08:01:23.762Z,20.17
2023-05-07T08:03:50.804Z,20.08
2023-05-07T08:06:17.506Z,19.91
2023-05-07T08:08:44.300Z,19.91
2023-05-07T08:11:11.181Z,19.78
2023-05-07T08:13:39.415Z,19.81
2023-05-07T08:16:06.419Z,19.83
2023-05-07T08:18:33.028Z,19.79
2023-05-07T08:20:59.703Z,19.76
2023-05-07T08:23:26.283Z,19.81
2023-05-07T08:25:53.210Z,19.70
2023-05-07T08:28:20.787Z,19.79
2023-05-07T08:30:47.782Z,19.79
2023-05-07T08:33:14.698Z,19.81
2023-05-07T08:35:41.364Z,19.68
2023-05-07T08:38:07.975Z,19.62
2023-05-07T08:40:38.967Z,19.57
2023-05-07T08:43:07.305Z,19.53
2023-05-07T08:45:35.133Z,19.62
2023-05-07T08:48:06.491Z,19.66
2023-05-07T08:50:36.353Z,19.75
2023-05-07T08:53:04.839Z,19.78
2023-05-07T08:55:31.562Z,19.86
2023-05-07T08:57:58.163Z,19.69
2023-05-07T09:00:24.809Z,19.76
2023-05-07T09:02:51.678Z,19.86
2023-05-07T09:05:18.386Z,19.97
2023-05-07T09:07:45.506Z,20.14
2023-05-07T09:10:12.579Z,20.35
2023-05-07T09:12:40.244Z,20.44
2023-05-07T09:15:07.737Z,20.62
2023-05-07T09:17:34.332Z,20.76
2023-05-07T09:20:10.106Z,20.93
2023-05-07T09:22:38.894Z,21.03
2023-05-07T09:25:10.506Z,20.92
2023-05-07T09:27:37.712Z,21.11
2023-05-07T09:30:07.228Z,21.37
2023-05-07T09:32:40.859Z,21.42
2023-05-07T09:35:22.482Z,21.45
2023-05-07T09:37:49.120Z,21.53
2023-05-07T09:40:26.803Z,21.72
2023-05-07T09:42:53.676Z,21.82
2023-05-07T09:45:26.118Z,21.83
2023-05-07T09:47:56.398Z,21.87
2023-05-07T09:50:29.013Z,22.16
2023-05-07T09:52:57.194Z,22.25
2023-05-07T09:55:24.396Z,22.22
2023-05-07T09:57:52.287Z,21.88
2023-05-07T10:00:23.300Z,21.75
2023-05-07T10:02:53.431Z,21.62
2023-05-07T10:05:23.579Z,21.65
2023-05-07T10:07:51.400Z,21.35
2023-05-07T10:10:18.687Z,21.27
2023-05-07T10:12:46.228Z,21.31
2023-05-07T10:15:13.737Z,21.23
2023-05-07T10:17:42.604Z,21.17
2023-05-07T10:20:09.921Z,21.15
2023-05-07T10:22:47.081Z,21.21
2023-05-07T10:25:21.970Z,21.13
2023-05-07T10:27:51.811Z,20.99
2023-05-07T10:30:27.583Z,20.88
2023-05-07T10:32:59.147Z,20.95
2023-05-07T10:35:30.550Z,20.93
2023-05-07T10:37:57.292Z,20.84
2023-05-07T10:40:24.078Z,20.93
2023-05-07T10:43:01.430Z,21.19
2023-05-07T10:45:29.804Z,21.17
2023-05-07T10:48:28.611Z,21.31
2023-05-07T10:51:20.275Z,21.50
2023-05-07T10:53:46.861Z,21.52
2023-05-07T10:56:19.633Z,21.67
2023-05-07T10:58:46.345Z,21.84
2023-05-07T11:01:14.271Z,22.02
2023-05-07T11:04:16.547Z,22.13
2023-05-07T11:06:45.884Z,22.19
2023-05-07T11:09:12.487Z,22.31
2023-05-07T11:11:49.044Z,22.47
2023-05-07T11:14:35.845Z,22.66
2023-05-07T11:17:04.939Z,22.85
2023-05-07T11:19:51.262Z,23.10
2023-05-07T11:22:32.943Z,23.52
2023-05-07T11:25:07.341Z,23.69
2023-05-07T11:27:34.839Z,23.92
2023-05-07T11:30:02.935Z,24.05
2023-05-07T11:32:32.239Z,24.21
2023-05-07T11:35:01.224Z,24.29
2023-05-07T11:37:30.605Z,24.42
2023-05-07T11:40:23.709Z,24.50
2023-05-07T11:45:28.052Z,24.52
2023-05-07T11:47:54.719Z,24.69
2023-05-07T11:50:21.350Z,24.86
2023-05-07T11:52:54.165Z,25.22
2023-05-07T11:55:20.971Z,25.46
2023-05-07T11:57:47.853Z,25.53
2023-05-07T12:00:17.498Z,25.73
2023-05-07T12:02:46.751Z,25.84
2023-05-07T12:05:13.670Z,25.96
2023-05-07T12:07:40.747Z,26.15
2023-05-07T12:10:08.014Z,26.28
2023-05-07T12:12:46.882Z,26.19
2023-05-07T12:15:23.469Z,26.34
2023-05-07T12:17:50.548Z,26.16
2023-05-07T12:20:18.189Z,25.97
2023-05-07T12:22:44.962Z,25.94
2023-05-07T12:25:11.778Z,25.95
2023-05-07T12:27:42.174Z,25.95
2023-05-07T12:30:11.575Z,25.89
2023-05-07T12:32:38.308Z,26.14
2023-05-07T12:35:07.502Z,26.19
2023-05-07T12:37:34.125Z,26.25
2023-05-07T12:40:11.279Z,26.28
2023-05-07T12:42:39.633Z,26.77
2023-05-07T12:45:14.346Z,26.53
2023-05-07T12:47:48.203Z,26.70
2023-05-07T12:50:16.395Z,26.89
2023-05-07T12:52:45.267Z,26.86
2023-05-07T12:55:15.518Z,27.11
2023-05-07T12:57:49.659Z,27.09
2023-05-07T13:00:16.735Z,27.20
2023-05-07T13:02:47.683Z,27.45
2023-05-07T13:05:14.687Z,27.13
2023-05-07T13:07:42.092Z,27.02
2023-05-07T13:10:09.428Z,27.13
2023-05-07T13:12:36.159Z,27.21
2023-05-07T13:15:02.805Z,27.00
2023-05-07T13:17:29.517Z,26.83
2023-05-07T13:19:56.181Z,26.87
2023-05-07T13:22:22.749Z,26.56
2023-05-07T13:24:49.435Z,26.85
2023-05-07T13:27:16.518Z,27.00
2023-05-07T13:29:43.109Z,27.09
2023-05-07T13:32:09.772Z,27.41
2023-05-07T13:34:37.197Z,27.21
2023-05-07T13:37:04.401Z,27.20
2023-05-07T13:39:30.986Z,27.24
2023-05-07T13:41:57.569Z,27.04
2023-05-07T13:44:24.171Z,26.91
2023-05-07T13:46:51.207Z,27.17
2023-05-07T13:49:17.928Z,27.24
2023-05-07T13:51:44.574Z,27.78
2023-05-07T13:54:11.462Z,27.85
2023-05-07T13:56:38.265Z,28.22
2023-05-07T13:59:04.851Z,28.16
2023-05-07T14:01:32.156Z,28.36
2023-05-07T14:04:00.553Z,28.36
2023-05-07T14:06:27.474Z,29.17
2023-05-07T14:08:54.124Z,29.40
2023-05-07T14:11:21.753Z,29.07
2023-05-07T14:13:48.385Z,28.61
2023-05-07T14:16:14.982Z,27.64
2023-05-07T14:18:41.624Z,28.17
2023-05-07T14:21:11.010Z,28.81
2023-05-07T14:23:37.703Z,29.42
2023-05-07T14:26:04.341Z,29.79
2023-05-07T14:28:30.934Z,29.69
2023-05-07T14:30:57.781Z,29.93
2023-05-07T14:33:24.436Z,29.58
2023-05-07T14:35:51.211Z,30.14
2023-05-07T14:38:17.844Z,30.49
2023-05-07T14:40:44.444Z,30.76
2023-05-07T14:43:11.005Z,30.17
2023-05-07T14:45:37.576Z,30.66
2023-05-07T14:48:04.672Z,29.97
2023-05-07T14:50:31.240Z,30.57
2023-05-07T14:52:57.853Z,30.38
2023-05-07T14:55:24.457Z,30.52
2023-05-07T14:57:51.112Z,29.63
2023-05-07T15:00:17.975Z,30.66
2023-05-07T15:02:44.637Z,30.25
2023-05-07T15:05:11.740Z,31.41
2023-05-07T15:07:38.522Z,32.13
2023-05-07T15:10:05.967Z,31.57
2023-05-07T15:12:32.503Z,31.56
2023-05-07T15:14:59.132Z,31.92
2023-05-07T15:17:25.752Z,30.95
2023-05-07T15:19:54.388Z,30.64
2023-05-07T15:22:22.743Z,31.73
2023-05-07T15:24:49.456Z,31.35
2023-05-07T15:27:17.699Z,31.44
2023-05-07T15:29:44.369Z,31.68
2023-05-07T15:32:11.404Z,31.62
2023-05-07T15:34:38.178Z,32.29
2023-05-07T15:37:04.763Z,31.46
2023-05-07T15:39:32.011Z,31.56
2023-05-07T15:41:58.611Z,31.34
2023-05-07T15:44:28.458Z,32.01
2023-05-07T15:46:55.304Z,32.15
2023-05-07T15:49:23.103Z,31.94
2023-05-07T15:51:51.714Z,32.18
2023-05-07T15:54:21.028Z,31.64
2023-05-07T15:56:48.254Z,30.90
2023-05-07T15:59:16.958Z,30.97
2023-05-07T16:01:45.741Z,31.06
2023-05-07T16:04:12.532Z,31.30
2023-05-07T16:06:39.323Z,30.54
2023-05-07T16:09:05.975Z,30.47
2023-05-07T16:11:34.026Z,30.33
2023-05-07T16:14:03.279Z,30.17
2023-05-07T16:16:33.684Z,29.85
2023-05-07T16:19:00.766Z,29.47
2023-05-07T16:21:27.514Z,29.29
2023-05-07T16:23:54.084Z,29.42
2023-05-07T16:26:20.660Z,29.48
2023-05-07T16:28:47.298Z,29.50
2023-05-07T16:31:13.975Z,28.98
2023-05-07T16:33:40.919Z,28.61
2023-05-07T16:36:07.820Z,28.55
2023-05-07T16:38:34.767Z,27.78
2023-05-07T16:41:01.784Z,27.60
2023-05-07T16:43:28.441Z,27.44
2023-05-07T16:45:55.197Z,27.17
2023-05-07T16:48:21.936Z,27.11
2023-05-07T16:50:48.618Z,26.99
2023-05-07T16:53:15.477Z,26.84
2023-05-07T16:55:42.258Z,26.43
2023-05-07T16:58:11.285Z,26.37
2023-05-07T17:00:49.834Z,26.06
2023-05-07T17:03:17.120Z,24.94
2023-05-07T17:05:43.854Z,24.60
2023-05-07T17:08:10.446Z,24.66
2023-05-07T17:10:37.044Z,24.66
2023-05-07T17:13:03.852Z,24.36
2023-05-07T17:15:30.685Z,24.02
2023-05-07T17:17:57.457Z,23.57
2023-05-07T17:20:25.190Z,23.11
2023-05-07T17:22:51.775Z,22.73
2023-05-07T17:25:18.905Z,22.43
2023-05-07T17:27:45.601Z,22.28
2023-05-07T17:30:13.093Z,21.96
2023-05-07T17:32:40.282Z,21.60
2023-05-07T17:35:07.419Z,21.42
2023-05-07T17:37:34.308Z,21.11
2023-05-07T17:40:01.799Z,20.83
2023-05-07T17:42:28.421Z,20.83
2023-05-07T17:44:55.863Z,20.63
2023-05-07T17:47:22.494Z,20.51
2023-05-07T17:49:49.153Z,20.22
2023-05-07T17:52:15.768Z,20.11
2023-05-07T17:54:42.483Z,20.11
2023-05-07T17:57:09.027Z,20.10
2023-05-07T17:59:35.721Z,19.98
2023-05-07T18:02:02.287Z,19.85
2023-05-07T18:04:29.072Z,19.68
2023-05-07T18:06:57.329Z,19.57
2023-05-07T18:09:23.976Z,19.44
2023-05-07T18:11:50.530Z,19.43
2023-05-07T18:14:17.243Z,19.45
2023-05-07T18:16:43.836Z,19.27
2023-05-07T18:19:10.580Z,19.07
2023-05-07T18:21:37.182Z,18.89
2023-05-07T18:24:03.887Z,18.73
2023-05-07T18:26:30.564Z,18.58
2023-05-07T18:28:57.229Z,18.55
2023-05-07T18:31:24.017Z,18.47
2023-05-07T18:33:56.039Z,18.34
2023-05-07T18:36:25.023Z,18.09
2023-05-07T18:38:52.545Z,18.02
2023-05-07T18:41:19.215Z,17.92
2023-05-07T18:43:46.003Z,17.84
2023-05-07T18:46:12.615Z,17.77
2023-05-07T18:48:39.401Z,17.62
2023-05-07T18:51:06.248Z,17.36
2023-05-07T18:53:32.876Z,17.27
2023-05-07T18:56:00.837Z,17.12
2023-05-07T18:58:27.603Z,16.97
2023-05-07T19:00:54.336Z,16.85
2023-05-07T19:03:20.926Z,16.86
2023-05-07T19:05:47.501Z,16.86
2023-05-07T19:08:14.175Z,16.87
2023-05-07T19:10:40.985Z,16.73
2023-05-07T19:13:07.647Z,16.67
2023-05-07T19:15:34.424Z,16.63
2023-05-07T19:18:01.522Z,16.66
2023-05-07T19:20:28.875Z,16.63
2023-05-07T19:22:55.740Z,16.68
2023-05-07T19:25:22.481Z,16.70
2023-05-07T19:27:50.871Z,16.68
2023-05-07T19:30:17.990Z,16.64
2023-05-07T19:32:44.855Z,16.57
2023-05-07T19:35:11.716Z,16.47
2023-05-07T19:37:39.359Z,16.44
2023-05-07T19:40:07.125Z,16.39
2023-05-07T19:42:33.785Z,16.24
2023-05-07T19:45:00.682Z,16.19
2023-05-07T19:47:27.600Z,16.08
2023-05-07T19:49:54.208Z,15.92
2023-05-07T19:52:20.834Z,15.84
2023-05-07T19:54:47.716Z,15.81
2023-05-07T19:57:15.418Z,15.76
2023-05-07T19:59:42.017Z,15.74
2023-05-07T20:02:08.699Z,15.65
2023-05-07T20:04:38.127Z,15.49
2023-05-07T20:07:05.808Z,15.34
2023-05-07T20:09:32.615Z,15.11
2023-05-07T20:11:59.346Z,14.92
2023-05-07T20:14:27.065Z,14.77
2023-05-07T20:16:53.842Z,14.69
2023-05-07T20:19:20.701Z,14.55
2023-05-07T20:21:47.309Z,14.50
2023-05-07T20:24:14.010Z,14.40
2023-05-07T20:26:41.279Z,14.30
2023-05-07T20:29:08.055Z,14.12
2023-05-07T20:31:35.379Z,14.03
2023-05-07T20:34:02.494Z,13.97
2023-05-07T20:36:29.284Z,13.93
2023-05-07T20:38:56.270Z,13.86
2023-05-07T20:41:25.471Z,13.77
2023-05-07T20:43:52.484Z,13.74
2023-05-07T20:46:22.421Z,13.71
2023-05-07T20:48:49.802Z,13.65
2023-05-07T20:51:16.553Z,13.51
2023-05-07T20:53:47.686Z,13.51
2023-05-07T20:56:15.052Z,13.41
2023-05-07T20:58:41.861Z,13.26
2023-05-07T21:01:08.567Z,13.14
2023-05-07T21:03:35.360Z,13.03
2023-05-07T21:06:01.971Z,13.02
2023-05-07T21:08:28.560Z,13.08
2023-05-07T21:10:55.446Z,13.05
2023-05-07T21:13:23.064Z,12.97
2023-05-07T21:15:49.882Z,12.90
2023-05-07T21:18:16.639Z,12.78
2023-05-07T21:20:43.210Z,12.74
2023-05-07T21:23:09.823Z,12.66
2023-05-07T21:25:40.927Z,12.56
2023-05-07T21:28:10.457Z,12.44
2023-05-07T21:30:37.327Z,12.37
2023-05-07T21:33:06.972Z,12.32
2023-05-07T21:35:36.326Z,12.26
2023-05-07T21:38:03.412Z,12.20
2023-05-07T21:40:30.213Z,12.14
2023-05-07T21:42:56.745Z,12.14
2023-05-07T21:45:23.348Z,12.14
2023-05-07T21:47:50.055Z,12.08
2023-05-07T21:50:17.012Z,12.04
2023-05-07T21:52:43.715Z,12.04
2023-05-07T21:55:10.834Z,12.00
2023-05-07T21:57:37.845Z,11.98
2023-05-07T22:00:04.895Z,11.93
2023-05-07T22:02:31.909Z,11.87
2023-05-07T22:04:58.569Z,11.86
2023-05-07T22:07:25.166Z,11.81
2023-05-07T22:09:51.995Z,11.73
2023-05-07T22:12:18.544Z,11.58
2023-05-07T22:14:45.185Z,11.48
2023-05-07T22:17:11.743Z,11.33
2023-05-07T22:19:38.521Z,11.30
2023-05-07T22:22:05.098Z,11.29
2023-05-07T22:24:31.760Z,11.24
2023-05-07T22:26:58.343Z,11.11
2023-05-07T22:29:25.090Z,11.06
2023-05-07T22:31:51.933Z,10.99
2023-05-07T22:34:18.614Z,10.93
2023-05-07T22:36:45.307Z,10.88
2023-05-07T22:39:12.196Z,10.85
2023-05-07T22:41:39.126Z,10.79
2023-05-07T22:44:06.546Z,10.77
2023-05-07T22:46:33.304Z,10.72
2023-05-07T22:49:00.028Z,10.76
2023-05-07T22:51:27.432Z,10.69
2023-05-07T22:53:54.042Z,10.67
2023-05-07T22:56:20.684Z,10.70
2023-05-07T22:58:47.277Z,10.71
2023-05-07T23:01:15.631Z,10.64
2023-05-07T23:03:42.419Z,10.60
2023-05-07T23:06:09.180Z,10.59
2023-05-07T23:08:36.580Z,10.56
2023-05-07T23:11:03.272Z,10.53
2023-05-07T23:13:30.046Z,10.48
2023-05-07T23:15:58.778Z,10.41
2023-05-07T23:18:28.323Z,10.41
2023-05-07T23:20:55.001Z,10.43
2023-05-07T23:23:22.106Z,10.41
2023-05-07T23:25:51.901Z,10.38
2023-05-07T23:28:18.589Z,10.38
2023-05-07T23:30:45.206Z,10.29
2023-05-07T23:33:12.041Z,10.33
2023-05-07T23:35:39.833Z,10.34
2023-05-07T23:38:06.376Z,10.37
2023-05-07T23:40:33.038Z,10.30
2023-05-07T23:42:59.771Z,10.20
2023-05-07T23:45:26.436Z,10.20
2023-05-07T23:47:53.072Z,10.20
2023-05-07T23:50:19.698Z,10.20
2023-05-07T23:52:46.260Z,10.15
2023-05-07T23:55:13.845Z,10.05
2023-05-07T23:57:40.408Z,9.96
